KSNAKAVX

Guest
Details From KSNA - Orange County - John Wayne
To KAVX - Catalina
Flight Number -
Tags Generated
Created
Modified
Stats Distance 32 nm / 59 km
Max Altitude 0 ft / 0 m
Waypoints 2
Social Downloads 3
Likes 0
Share VATSIM

Download

Looking for another format? Having issues loading an existing format? Contact us
Advertisement - Login to hide

Notes

Generated

Route

KSNA KAVX

ID Type Via Altitude Latitude Longitude Leg Dist Tot Dist Heading (true) Name
O KSNA APT - 0 ft / 0 m 33.67399˚ -117.86805˚ - 0 nm - -
O KAVX APT - 0 ft / 0 m 33.40219˚ -118.42008˚ 32 nm 32 nm 240° / 239° Catalina

Altitude Profile

Advertisement - Login to hide

KSNA

Details ICAO KSNA (SNA)
Name Orange County - John Wayne
Region United States
Timezone America/Los_Angeles (UTC-8.0)
Stats Elevation 56 ft / 17 m (AMSL)
Location 33.676112° -117.867636°
Runways 2
Magnetic Variation 11.846° E

METAR

KSNA 132253Z 20005KT 10SM CLR 23/04 A2993 RMK AO2 SLP135 T02280044

Decode

TAF

KSNA 131728Z 1318/1418 VRB05KT P6SM SKC FM141600 05005KT P6SM SKC WS020/05025KT

Decode

Departure Runways

ID Width Length Bearing (true) Bearing (mag) Surface Threshold Offset Overrun Length
01L 151 ft / 46 m 5,711 ft / 1,741 m 27.81° 15.96° Asphalt 0 ft / 0 m 1,050 ft / 320 m
01R 75 ft / 23 m 2,892 ft / 881 m 27.80° 15.95° Asphalt 0 ft / 0 m 400 ft / 122 m
19L 75 ft / 23 m 2,892 ft / 881 m 207.80° 195.95° Asphalt 0 ft / 0 m 151 ft / 46 m
19R 151 ft / 46 m 5,711 ft / 1,741 m 207.81° 195.96° Asphalt 0 ft / 0 m 194 ft / 59 m

KAVX

Details ICAO KAVX (AVX)
Name Catalina
Region United States
Timezone America/Los_Angeles (UTC-8.0)
Stats Elevation 1,601 ft / 488 m (AMSL)
Location 33.404656° -118.415880°
Runways 1
Magnetic Variation 11.901° E

METAR

KAVX 132251Z AUTO 27004KT 10SM CLR 24/M14 A3000 RMK AO2 SLP133 T02391144

Decode

TAF

Not found

Destination Runways

ID Width Length Bearing (true) Bearing (mag) Surface Threshold Offset Overrun Length
04 59 ft / 18 m 3,127 ft / 953 m 54.93° 43.03° Asphalt 131 ft / 40 m 0 ft / 0 m
22 59 ft / 18 m 3,127 ft / 953 m 234.93° 223.03° Asphalt 62 ft / 19 m 0 ft / 0 m

Popular Alternatives